Terminal Aerodrome Forecast
Issued by NWS Nashville, TN

Current Version | Previous Version | Text Only | Print | Product List | Glossary On
Versions: 1 2 3 4 5 6 7 8 9 10 11 12 13 14 15 16 17 18 19 20 21 22 23 24 25 26 27 28 29
803
FTUS44 KOHX 242359 AAA
TAFCSV
TAF AMD
KCSV 242359Z 2500/2524 17010G15KT P6SM BKN050
     FM250300 19010G18KT P6SM VCSH OVC040
     FM250500 21011G17KT 2SM TSRA OVC015CB
     FM250700 23011G17KT 5SM -SHRA VCTS OVC015CB
     FM250900 29010G17KT P6SM BKN025
     FM251200 29012G18KT P6SM BKN040=

USA.gov is the U.S. government's official web portal to all federal, state and local government web resources and services.